sensor_id;sensor_type;location;lat;lon;timestamp;P1;durP1;ratioP1;P2;durP2;ratioP2
8036;SDS011;4061;51.360;7.340;2023-05-10T00:02:17;1.00;;;1.00;;
8036;SDS011;4061;51.360;7.340;2023-05-10T00:04:44;1.10;;;1.10;;
8036;SDS011;4061;51.360;7.340;2023-05-10T00:07:11;1.20;;;1.10;;
8036;SDS011;4061;51.360;7.340;2023-05-10T00:09:40;1.33;;;1.30;;
8036;SDS011;4061;51.360;7.340;2023-05-10T00:12:07;1.40;;;1.10;;
8036;SDS011;4061;51.360;7.340;2023-05-10T00:14:35;0.70;;;0.70;;
8036;SDS011;4061;51.360;7.340;2023-05-10T00:17:02;1.15;;;1.00;;
8036;SDS011;4061;51.360;7.340;2023-05-10T00:19:29;1.27;;;0.90;;
8036;SDS011;4061;51.360;7.340;2023-05-10T00:21:56;1.10;;;1.00;;
8036;SDS011;4061;51.360;7.340;2023-05-10T00:24:23;0.80;;;0.80;;
8036;SDS011;4061;51.360;7.340;2023-05-10T00:26:52;1.05;;;1.00;;
8036;SDS011;4061;51.360;7.340;2023-05-10T00:29:19;1.02;;;1.02;;
8036;SDS011;4061;51.360;7.340;2023-05-10T00:31:46;1.08;;;1.08;;
8036;SDS011;4061;51.360;7.340;2023-05-10T00:34:13;0.80;;;0.80;;
8036;SDS011;4061;51.360;7.340;2023-05-10T00:36:41;1.40;;;1.30;;
8036;SDS011;4061;51.360;7.340;2023-05-10T00:39:08;1.25;;;1.13;;
8036;SDS011;4061;51.360;7.340;2023-05-10T00:41:35;5.90;;;1.40;;
8036;SDS011;4061;51.360;7.340;2023-05-10T00:44:03;1.63;;;1.50;;
8036;SDS011;4061;51.360;7.340;2023-05-10T00:46:31;2.10;;;1.90;;
8036;SDS011;4061;51.360;7.340;2023-05-10T00:48:58;2.17;;;1.70;;
8036;SDS011;4061;51.360;7.340;2023-05-10T00:51:25;1.80;;;1.63;;
8036;SDS011;4061;51.360;7.340;2023-05-10T00:53:53;3.28;;;1.80;;
8036;SDS011;4061;51.360;7.340;2023-05-10T00:56:21;1.85;;;1.75;;
8036;SDS011;4061;51.360;7.340;2023-05-10T00:58:49;1.75;;;1.65;;
8036;SDS011;4061;51.360;7.340;2023-05-10T01:01:18;5.55;;;2.28;;
8036;SDS011;4061;51.360;7.340;2023-05-10T01:03:46;2.35;;;1.67;;
8036;SDS011;4061;51.360;7.340;2023-05-10T01:06:13;1.88;;;1.75;;
8036;SDS011;4061;51.360;7.340;2023-05-10T01:08:40;2.85;;;2.42;;
8036;SDS011;4061;51.360;7.340;2023-05-10T01:11:08;2.47;;;2.20;;
8036;SDS011;4061;51.360;7.340;2023-05-10T01:13:35;5.95;;;2.30;;
8036;SDS011;4061;51.360;7.340;2023-05-10T01:16:03;2.60;;;2.40;;
8036;SDS011;4061;51.360;7.340;2023-05-10T01:18:33;2.85;;;2.25;;
8036;SDS011;4061;51.360;7.340;2023-05-10T01:21:03;7.00;;;2.83;;
8036;SDS011;4061;51.360;7.340;2023-05-10T01:23:35;7.35;;;2.33;;
8036;SDS011;4061;51.360;7.340;2023-05-10T01:26:14;3.80;;;2.50;;
8036;SDS011;4061;51.360;7.340;2023-05-10T01:28:51;3.28;;;2.40;;
8036;SDS011;4061;51.360;7.340;2023-05-10T01:31:30;9.05;;;2.10;;
8036;SDS011;4061;51.360;7.340;2023-05-10T01:34:00;2.83;;;2.03;;
8036;SDS011;4061;51.360;7.340;2023-05-10T01:36:30;4.13;;;2.20;;
8036;SDS011;4061;51.360;7.340;2023-05-10T01:38:59;3.72;;;2.53;;
8036;SDS011;4061;51.360;7.340;2023-05-10T01:41:30;8.20;;;2.40;;
8036;SDS011;4061;51.360;7.340;2023-05-10T01:44:01;2.83;;;2.30;;
8036;SDS011;4061;51.360;7.340;2023-05-10T01:46:31;3.05;;;2.38;;
8036;SDS011;4061;51.360;7.340;2023-05-10T01:49:01;2.90;;;2.70;;
8036;SDS011;4061;51.360;7.340;2023-05-10T01:51:31;2.53;;;2.15;;
8036;SDS011;4061;51.360;7.340;2023-05-10T01:54:00;4.40;;;3.20;;
8036;SDS011;4061;51.360;7.340;2023-05-10T01:56:29;2.60;;;2.40;;
8036;SDS011;4061;51.360;7.340;2023-05-10T01:58:57;2.88;;;2.47;;
8036;SDS011;4061;51.360;7.340;2023-05-10T02:01:24;5.03;;;2.83;;
8036;SDS011;4061;51.360;7.340;2023-05-10T02:03:52;3.58;;;3.28;;
8036;SDS011;4061;51.360;7.340;2023-05-10T02:06:22;4.53;;;3.83;;
8036;SDS011;4061;51.360;7.340;2023-05-10T02:08:49;4.10;;;3.45;;
8036;SDS011;4061;51.360;7.340;2023-05-10T02:11:17;5.82;;;3.70;;
8036;SDS011;4061;51.360;7.340;2023-05-10T02:13:46;6.53;;;3.15;;
8036;SDS011;4061;51.360;7.340;2023-05-10T02:16:14;4.25;;;3.40;;
8036;SDS011;4061;51.360;7.340;2023-05-10T02:18:43;4.65;;;3.00;;
8036;SDS011;4061;51.360;7.340;2023-05-10T02:21:10;4.35;;;2.75;;
8036;SDS011;4061;51.360;7.340;2023-05-10T02:23:39;5.20;;;2.92;;
8036;SDS011;4061;51.360;7.340;2023-05-10T02:26:07;3.38;;;3.08;;
8036;SDS011;4061;51.360;7.340;2023-05-10T02:28:34;3.13;;;2.60;;
8036;SDS011;4061;51.360;7.340;2023-05-10T02:31:02;3.28;;;2.97;;
8036;SDS011;4061;51.360;7.340;2023-05-10T02:33:30;3.05;;;2.00;;
8036;SDS011;4061;51.360;7.340;2023-05-10T02:35:58;7.07;;;2.92;;
8036;SDS011;4061;51.360;7.340;2023-05-10T02:38:25;2.92;;;2.58;;
8036;SDS011;4061;51.360;7.340;2023-05-10T02:40:55;8.05;;;3.13;;
8036;SDS011;4061;51.360;7.340;2023-05-10T02:43:22;5.22;;;3.00;;
8036;SDS011;4061;51.360;7.340;2023-05-10T02:45:49;5.82;;;3.67;;
8036;SDS011;4061;51.360;7.340;2023-05-10T02:48:16;6.43;;;3.53;;
8036;SDS011;4061;51.360;7.340;2023-05-10T02:50:44;3.58;;;3.17;;
8036;SDS011;4061;51.360;7.340;2023-05-10T02:53:18;4.35;;;3.38;;
8036;SDS011;4061;51.360;7.340;2023-05-10T02:55:48;11.40;;;4.18;;
8036;SDS011;4061;51.360;7.340;2023-05-10T02:58:17;6.47;;;3.58;;
8036;SDS011;4061;51.360;7.340;2023-05-10T03:00:46;5.13;;;3.83;;
8036;SDS011;4061;51.360;7.340;2023-05-10T03:03:13;5.97;;;3.97;;
8036;SDS011;4061;51.360;7.340;2023-05-10T03:05:40;7.18;;;4.43;;
8036;SDS011;4061;51.360;7.340;2023-05-10T03:08:07;11.32;;;4.35;;
8036;SDS011;4061;51.360;7.340;2023-05-10T03:13:21;5.20;;;3.78;;
8036;SDS011;4061;51.360;7.340;2023-05-10T03:15:51;12.25;;;4.40;;
8036;SDS011;4061;51.360;7.340;2023-05-10T03:18:22;6.70;;;4.45;;
8036;SDS011;4061;51.360;7.340;2023-05-10T03:20:50;7.85;;;4.63;;
8036;SDS011;4061;51.360;7.340;2023-05-10T03:23:21;9.55;;;4.57;;
8036;SDS011;4061;51.360;7.340;2023-05-10T03:25:48;10.90;;;4.95;;
8036;SDS011;4061;51.360;7.340;2023-05-10T03:28:16;10.43;;;4.78;;
8036;SDS011;4061;51.360;7.340;2023-05-10T03:30:46;7.88;;;4.72;;
8036;SDS011;4061;51.360;7.340;2023-05-10T03:33:13;14.40;;;5.63;;
8036;SDS011;4061;51.360;7.340;2023-05-10T03:35:40;12.70;;;5.20;;
8036;SDS011;4061;51.360;7.340;2023-05-10T03:38:09;12.82;;;4.85;;
8036;SDS011;4061;51.360;7.340;2023-05-10T03:40:36;9.68;;;5.22;;
8036;SDS011;4061;51.360;7.340;2023-05-10T03:43:03;9.63;;;5.65;;
8036;SDS011;4061;51.360;7.340;2023-05-10T03:45:31;12.60;;;5.60;;
8036;SDS011;4061;51.360;7.340;2023-05-10T03:47:59;11.65;;;5.28;;
8036;SDS011;4061;51.360;7.340;2023-05-10T03:50:26;7.82;;;5.35;;
8036;SDS011;4061;51.360;7.340;2023-05-10T03:52:53;11.27;;;5.55;;
8036;SDS011;4061;51.360;7.340;2023-05-10T03:55:21;11.38;;;5.47;;
8036;SDS011;4061;51.360;7.340;2023-05-10T03:57:48;10.38;;;5.55;;
8036;SDS011;4061;51.360;7.340;2023-05-10T04:00:15;13.93;;;6.45;;
8036;SDS011;4061;51.360;7.340;2023-05-10T04:02:43;11.18;;;6.20;;
8036;SDS011;4061;51.360;7.340;2023-05-10T04:05:11;12.85;;;5.93;;
8036;SDS011;4061;51.360;7.340;2023-05-10T04:07:38;14.15;;;7.68;;
8036;SDS011;4061;51.360;7.340;2023-05-10T04:10:06;16.42;;;7.90;;
8036;SDS011;4061;51.360;7.340;2023-05-10T04:12:33;14.38;;;8.18;;
8036;SDS011;4061;51.360;7.340;2023-05-10T04:15:00;16.73;;;8.05;;
8036;SDS011;4061;51.360;7.340;2023-05-10T04:17:27;15.63;;;7.75;;
8036;SDS011;4061;51.360;7.340;2023-05-10T04:19:55;13.45;;;7.35;;
8036;SDS011;4061;51.360;7.340;2023-05-10T04:22:24;13.95;;;7.07;;
8036;SDS011;4061;51.360;7.340;2023-05-10T04:24:52;15.25;;;7.40;;
8036;SDS011;4061;51.360;7.340;2023-05-10T04:27:19;13.68;;;7.03;;
8036;SDS011;4061;51.360;7.340;2023-05-10T04:29:47;20.70;;;8.32;;
8036;SDS011;4061;51.360;7.340;2023-05-10T04:32:14;12.95;;;7.43;;
8036;SDS011;4061;51.360;7.340;2023-05-10T04:34:42;15.63;;;8.55;;
8036;SDS011;4061;51.360;7.340;2023-05-10T04:37:09;18.00;;;8.65;;
8036;SDS011;4061;51.360;7.340;2023-05-10T04:39:37;12.48;;;7.68;;
8036;SDS011;4061;51.360;7.340;2023-05-10T04:42:05;14.43;;;7.72;;
8036;SDS011;4061;51.360;7.340;2023-05-10T04:44:32;16.67;;;8.10;;
8036;SDS011;4061;51.360;7.340;2023-05-10T04:46:59;16.27;;;7.90;;
8036;SDS011;4061;51.360;7.340;2023-05-10T04:49:27;12.95;;;7.65;;
8036;SDS011;4061;51.360;7.340;2023-05-10T04:51:54;18.88;;;8.10;;
8036;SDS011;4061;51.360;7.340;2023-05-10T04:54:21;18.02;;;7.78;;
8036;SDS011;4061;51.360;7.340;2023-05-10T04:56:50;17.33;;;8.68;;
8036;SDS011;4061;51.360;7.340;2023-05-10T04:59:17;20.08;;;8.88;;
8036;SDS011;4061;51.360;7.340;2023-05-10T05:01:44;18.52;;;8.65;;
8036;SDS011;4061;51.360;7.340;2023-05-10T05:04:11;20.02;;;9.32;;
8036;SDS011;4061;51.360;7.340;2023-05-10T05:06:39;17.30;;;8.32;;
8036;SDS011;4061;51.360;7.340;2023-05-10T05:09:06;17.67;;;8.32;;
8036;SDS011;4061;51.360;7.340;2023-05-10T05:11:35;16.40;;;9.02;;
8036;SDS011;4061;51.360;7.340;2023-05-10T05:14:03;20.80;;;9.45;;
8036;SDS011;4061;51.360;7.340;2023-05-10T05:16:30;25.08;;;9.65;;
8036;SDS011;4061;51.360;7.340;2023-05-10T05:18:58;22.58;;;10.05;;
8036;SDS011;4061;51.360;7.340;2023-05-10T05:21:25;18.77;;;9.77;;
8036;SDS011;4061;51.360;7.340;2023-05-10T05:23:53;22.08;;;9.38;;
8036;SDS011;4061;51.360;7.340;2023-05-10T05:26:21;17.17;;;9.07;;
8036;SDS011;4061;51.360;7.340;2023-05-10T05:28:48;26.08;;;11.30;;
8036;SDS011;4061;51.360;7.340;2023-05-10T05:31:20;24.52;;;11.55;;
8036;SDS011;4061;51.360;7.340;2023-05-10T05:33:47;24.35;;;11.65;;
8036;SDS011;4061;51.360;7.340;2023-05-10T05:36:14;27.20;;;11.82;;
8036;SDS011;4061;51.360;7.340;2023-05-10T05:38:41;25.65;;;11.20;;
8036;SDS011;4061;51.360;7.340;2023-05-10T05:41:09;22.65;;;11.20;;
8036;SDS011;4061;51.360;7.340;2023-05-10T05:43:36;25.35;;;11.25;;
8036;SDS011;4061;51.360;7.340;2023-05-10T05:46:03;31.08;;;11.95;;
8036;SDS011;4061;51.360;7.340;2023-05-10T05:48:31;28.80;;;12.15;;
8036;SDS011;4061;51.360;7.340;2023-05-10T05:50:59;28.35;;;12.07;;
8036;SDS011;4061;51.360;7.340;2023-05-10T05:53:26;24.35;;;11.30;;
8036;SDS011;4061;51.360;7.340;2023-05-10T05:55:54;26.23;;;11.07;;
8036;SDS011;4061;51.360;7.340;2023-05-10T05:58:21;33.45;;;11.45;;
8036;SDS011;4061;51.360;7.340;2023-05-10T06:00:48;28.67;;;13.55;;
8036;SDS011;4061;51.360;7.340;2023-05-10T06:03:16;25.63;;;11.88;;
8036;SDS011;4061;51.360;7.340;2023-05-10T06:05:45;26.08;;;12.18;;
8036;SDS011;4061;51.360;7.340;2023-05-10T06:08:12;29.20;;;10.05;;
8036;SDS011;4061;51.360;7.340;2023-05-10T06:10:39;23.05;;;10.45;;
8036;SDS011;4061;51.360;7.340;2023-05-10T06:13:06;25.83;;;10.90;;
8036;SDS011;4061;51.360;7.340;2023-05-10T06:15:34;22.13;;;9.63;;
8036;SDS011;4061;51.360;7.340;2023-05-10T06:18:01;31.52;;;10.98;;
8036;SDS011;4061;51.360;7.340;2023-05-10T06:20:28;22.55;;;10.52;;
8036;SDS011;4061;51.360;7.340;2023-05-10T06:22:57;22.60;;;10.80;;
8036;SDS011;4061;51.360;7.340;2023-05-10T06:25:25;26.58;;;11.73;;
8036;SDS011;4061;51.360;7.340;2023-05-10T06:27:52;25.42;;;11.60;;
8036;SDS011;4061;51.360;7.340;2023-05-10T06:30:22;23.42;;;10.88;;
8036;SDS011;4061;51.360;7.340;2023-05-10T06:32:52;23.73;;;10.25;;
8036;SDS011;4061;51.360;7.340;2023-05-10T06:35:20;24.50;;;10.77;;
8036;SDS011;4061;51.360;7.340;2023-05-10T06:37:47;24.77;;;9.68;;
8036;SDS011;4061;51.360;7.340;2023-05-10T06:40:15;24.08;;;10.63;;
8036;SDS011;4061;51.360;7.340;2023-05-10T06:42:43;20.98;;;9.85;;
8036;SDS011;4061;51.360;7.340;2023-05-10T06:45:11;20.80;;;9.75;;
8036;SDS011;4061;51.360;7.340;2023-05-10T06:47:38;18.90;;;8.88;;
8036;SDS011;4061;51.360;7.340;2023-05-10T06:50:05;20.75;;;9.00;;
8036;SDS011;4061;51.360;7.340;2023-05-10T06:52:33;23.35;;;9.20;;
8036;SDS011;4061;51.360;7.340;2023-05-10T06:55:00;21.30;;;9.85;;
8036;SDS011;4061;51.360;7.340;2023-05-10T06:57:29;20.65;;;9.75;;
8036;SDS011;4061;51.360;7.340;2023-05-10T06:59:56;22.33;;;10.05;;
8036;SDS011;4061;51.360;7.340;2023-05-10T07:02:24;15.45;;;9.13;;
8036;SDS011;4061;51.360;7.340;2023-05-10T07:04:51;25.13;;;9.68;;
8036;SDS011;4061;51.360;7.340;2023-05-10T07:07:18;16.60;;;8.75;;
8036;SDS011;4061;51.360;7.340;2023-05-10T07:09:45;17.13;;;8.50;;
8036;SDS011;4061;51.360;7.340;2023-05-10T07:12:12;15.90;;;7.78;;
8036;SDS011;4061;51.360;7.340;2023-05-10T07:14:41;16.88;;;8.35;;
8036;SDS011;4061;51.360;7.340;2023-05-10T07:17:08;15.15;;;6.90;;
8036;SDS011;4061;51.360;7.340;2023-05-10T07:19:35;14.95;;;7.60;;
8036;SDS011;4061;51.360;7.340;2023-05-10T07:22:02;15.13;;;8.45;;
8036;SDS011;4061;51.360;7.340;2023-05-10T07:24:30;11.98;;;7.53;;
8036;SDS011;4061;51.360;7.340;2023-05-10T07:26:57;14.90;;;7.13;;
8036;SDS011;4061;51.360;7.340;2023-05-10T07:29:24;14.75;;;7.72;;
8036;SDS011;4061;51.360;7.340;2023-05-10T07:31:53;13.10;;;7.63;;
8036;SDS011;4061;51.360;7.340;2023-05-10T07:34:20;17.55;;;7.75;;
8036;SDS011;4061;51.360;7.340;2023-05-10T07:36:47;17.05;;;6.90;;
8036;SDS011;4061;51.360;7.340;2023-05-10T07:39:14;15.25;;;7.82;;
8036;SDS011;4061;51.360;7.340;2023-05-10T07:41:41;15.57;;;7.60;;
8036;SDS011;4061;51.360;7.340;2023-05-10T07:44:08;14.38;;;6.82;;
8036;SDS011;4061;51.360;7.340;2023-05-10T07:46:36;15.48;;;7.38;;
8036;SDS011;4061;51.360;7.340;2023-05-10T07:49:04;16.40;;;8.00;;
8036;SDS011;4061;51.360;7.340;2023-05-10T07:51:31;12.95;;;7.00;;
8036;SDS011;4061;51.360;7.340;2023-05-10T07:53:58;11.25;;;6.43;;
8036;SDS011;4061;51.360;7.340;2023-05-10T07:56:28;10.07;;;6.13;;
8036;SDS011;4061;51.360;7.340;2023-05-10T07:58:56;11.68;;;6.18;;
8036;SDS011;4061;51.360;7.340;2023-05-10T08:01:24;15.15;;;6.30;;
8036;SDS011;4061;51.360;7.340;2023-05-10T08:03:51;12.13;;;6.35;;
8036;SDS011;4061;51.360;7.340;2023-05-10T08:06:20;14.77;;;6.72;;
8036;SDS011;4061;51.360;7.340;2023-05-10T08:08:47;12.82;;;6.53;;
8036;SDS011;4061;51.360;7.340;2023-05-10T08:11:15;19.88;;;7.50;;
8036;SDS011;4061;51.360;7.340;2023-05-10T08:13:42;16.27;;;7.07;;
8036;SDS011;4061;51.360;7.340;2023-05-10T08:16:10;12.13;;;6.22;;
8036;SDS011;4061;51.360;7.340;2023-05-10T08:18:37;10.40;;;6.22;;
8036;SDS011;4061;51.360;7.340;2023-05-10T08:21:04;14.55;;;7.18;;
8036;SDS011;4061;51.360;7.340;2023-05-10T08:23:33;12.70;;;6.03;;
8036;SDS011;4061;51.360;7.340;2023-05-10T08:26:00;11.40;;;6.30;;
8036;SDS011;4061;51.360;7.340;2023-05-10T08:28:27;11.48;;;6.68;;
8036;SDS011;4061;51.360;7.340;2023-05-10T08:30:55;11.45;;;6.38;;
8036;SDS011;4061;51.360;7.340;2023-05-10T08:33:22;16.50;;;6.60;;
8036;SDS011;4061;51.360;7.340;2023-05-10T08:35:49;13.38;;;6.05;;
8036;SDS011;4061;51.360;7.340;2023-05-10T08:38:17;10.38;;;6.50;;
8036;SDS011;4061;51.360;7.340;2023-05-10T08:40:46;7.50;;;5.80;;
8036;SDS011;4061;51.360;7.340;2023-05-10T08:43:15;14.43;;;5.15;;
8036;SDS011;4061;51.360;7.340;2023-05-10T08:45:43;7.25;;;5.18;;
8036;SDS011;4061;51.360;7.340;2023-05-10T08:48:11;8.23;;;4.60;;
8036;SDS011;4061;51.360;7.340;2023-05-10T08:50:39;11.57;;;4.75;;
8036;SDS011;4061;51.360;7.340;2023-05-10T08:53:09;8.20;;;4.45;;
8036;SDS011;4061;51.360;7.340;2023-05-10T08:55:36;9.40;;;4.60;;
8036;SDS011;4061;51.360;7.340;2023-05-10T08:58:06;7.90;;;5.15;;
8036;SDS011;4061;51.360;7.340;2023-05-10T09:00:33;11.10;;;4.40;;
8036;SDS011;4061;51.360;7.340;2023-05-10T09:03:02;8.02;;;3.70;;
8036;SDS011;4061;51.360;7.340;2023-05-10T09:05:29;8.32;;;4.35;;
8036;SDS011;4061;51.360;7.340;2023-05-10T09:07:57;7.00;;;3.83;;
8036;SDS011;4061;51.360;7.340;2023-05-10T09:10:25;9.02;;;4.03;;
8036;SDS011;4061;51.360;7.340;2023-05-10T09:12:53;10.02;;;4.90;;
8036;SDS011;4061;51.360;7.340;2023-05-10T09:15:22;9.80;;;5.20;;
8036;SDS011;4061;51.360;7.340;2023-05-10T09:17:49;12.05;;;5.20;;
8036;SDS011;4061;51.360;7.340;2023-05-10T09:20:16;10.05;;;3.85;;
8036;SDS011;4061;51.360;7.340;2023-05-10T09:22:44;6.03;;;4.43;;
8036;SDS011;4061;51.360;7.340;2023-05-10T09:25:11;9.20;;;4.60;;
8036;SDS011;4061;51.360;7.340;2023-05-10T09:27:39;9.40;;;4.53;;
8036;SDS011;4061;51.360;7.340;2023-05-10T09:30:06;9.80;;;4.65;;
8036;SDS011;4061;51.360;7.340;2023-05-10T09:32:39;9.63;;;4.20;;
8036;SDS011;4061;51.360;7.340;2023-05-10T09:35:10;9.93;;;4.13;;
8036;SDS011;4061;51.360;7.340;2023-05-10T09:37:39;6.93;;;3.35;;
8036;SDS011;4061;51.360;7.340;2023-05-10T09:40:08;8.57;;;3.40;;
8036;SDS011;4061;51.360;7.340;2023-05-10T09:42:37;4.35;;;3.30;;
8036;SDS011;4061;51.360;7.340;2023-05-10T09:45:05;3.63;;;3.00;;
8036;SDS011;4061;51.360;7.340;2023-05-10T09:47:33;11.55;;;3.83;;
8036;SDS011;4061;51.360;7.340;2023-05-10T09:50:02;7.32;;;3.95;;
8036;SDS011;4061;51.360;7.340;2023-05-10T09:52:30;4.00;;;3.10;;
8036;SDS011;4061;51.360;7.340;2023-05-10T09:54:57;11.27;;;3.92;;
8036;SDS011;4061;51.360;7.340;2023-05-10T09:57:24;4.05;;;3.30;;
8036;SDS011;4061;51.360;7.340;2023-05-10T09:59:52;8.38;;;4.18;;
8036;SDS011;4061;51.360;7.340;2023-05-10T10:02:20;10.43;;;3.83;;
8036;SDS011;4061;51.360;7.340;2023-05-10T10:04:49;8.63;;;4.20;;
8036;SDS011;4061;51.360;7.340;2023-05-10T10:07:18;10.73;;;3.88;;
8036;SDS011;4061;51.360;7.340;2023-05-10T10:09:49;10.73;;;4.30;;
8036;SDS011;4061;51.360;7.340;2023-05-10T10:12:16;10.07;;;4.88;;
8036;SDS011;4061;51.360;7.340;2023-05-10T10:14:44;10.88;;;5.22;;
8036;SDS011;4061;51.360;7.340;2023-05-10T10:17:12;11.98;;;5.38;;
8036;SDS011;4061;51.360;7.340;2023-05-10T10:19:39;7.55;;;4.18;;
8036;SDS011;4061;51.360;7.340;2023-05-10T10:22:07;10.95;;;5.30;;
8036;SDS011;4061;51.360;7.340;2023-05-10T10:24:37;10.95;;;5.40;;
8036;SDS011;4061;51.360;7.340;2023-05-10T10:27:09;13.27;;;5.03;;
8036;SDS011;4061;51.360;7.340;2023-05-10T10:29:39;12.82;;;5.90;;
8036;SDS011;4061;51.360;7.340;2023-05-10T10:32:09;10.70;;;5.47;;
8036;SDS011;4061;51.360;7.340;2023-05-10T10:34:38;11.65;;;5.38;;
8036;SDS011;4061;51.360;7.340;2023-05-10T10:37:06;11.65;;;5.45;;
8036;SDS011;4061;51.360;7.340;2023-05-10T10:39:33;12.88;;;6.95;;
8036;SDS011;4061;51.360;7.340;2023-05-10T10:42:03;14.15;;;6.88;;
8036;SDS011;4061;51.360;7.340;2023-05-10T10:44:35;16.63;;;6.95;;
8036;SDS011;4061;51.360;7.340;2023-05-10T10:49:49;18.60;;;7.50;;
8036;SDS011;4061;51.360;7.340;2023-05-10T10:52:21;16.33;;;8.13;;
8036;SDS011;4061;51.360;7.340;2023-05-10T10:54:52;16.50;;;8.20;;
8036;SDS011;4061;51.360;7.340;2023-05-10T10:57:22;20.33;;;7.70;;
8036;SDS011;4061;51.360;7.340;2023-05-10T10:59:51;17.83;;;7.78;;
8036;SDS011;4061;51.360;7.340;2023-05-10T11:02:32;15.55;;;7.82;;
8036;SDS011;4061;51.360;7.340;2023-05-10T11:05:00;19.77;;;9.25;;
8036;SDS011;4061;51.360;7.340;2023-05-10T11:07:28;13.68;;;7.20;;
8036;SDS011;4061;51.360;7.340;2023-05-10T11:09:55;12.25;;;6.30;;
8036;SDS011;4061;51.360;7.340;2023-05-10T11:12:32;14.98;;;6.75;;
8036;SDS011;4061;51.360;7.340;2023-05-10T11:15:00;11.40;;;6.28;;
8036;SDS011;4061;51.360;7.340;2023-05-10T11:17:27;17.15;;;6.32;;
8036;SDS011;4061;51.360;7.340;2023-05-10T11:20:07;10.88;;;5.78;;
8036;SDS011;4061;51.360;7.340;2023-05-10T11:25:17;8.10;;;4.57;;
8036;SDS011;4061;51.360;7.340;2023-05-10T11:27:46;9.13;;;5.38;;
8036;SDS011;4061;51.360;7.340;2023-05-10T11:30:14;9.23;;;4.97;;
8036;SDS011;4061;51.360;7.340;2023-05-10T11:32:41;8.70;;;5.15;;
8036;SDS011;4061;51.360;7.340;2023-05-10T11:35:09;8.68;;;5.45;;
8036;SDS011;4061;51.360;7.340;2023-05-10T11:37:37;11.57;;;4.78;;
8036;SDS011;4061;51.360;7.340;2023-05-10T11:40:08;7.10;;;4.95;;
8036;SDS011;4061;51.360;7.340;2023-05-10T11:42:36;7.55;;;4.53;;
8036;SDS011;4061;51.360;7.340;2023-05-10T11:45:06;7.78;;;4.47;;
8036;SDS011;4061;51.360;7.340;2023-05-10T11:47:33;7.15;;;5.22;;
8036;SDS011;4061;51.360;7.340;2023-05-10T11:50:02;8.90;;;4.80;;
8036;SDS011;4061;51.360;7.340;2023-05-10T11:52:29;12.55;;;5.13;;
8036;SDS011;4061;51.360;7.340;2023-05-10T11:55:02;12.63;;;5.53;;
8036;SDS011;4061;51.360;7.340;2023-05-10T11:57:30;12.73;;;6.30;;
8036;SDS011;4061;51.360;7.340;2023-05-10T11:59:57;10.68;;;6.28;;
8036;SDS011;4061;51.360;7.340;2023-05-10T12:02:26;9.27;;;5.35;;
8036;SDS011;4061;51.360;7.340;2023-05-10T12:04:53;14.52;;;5.18;;
8036;SDS011;4061;51.360;7.340;2023-05-10T12:07:21;11.07;;;6.05;;
8036;SDS011;4061;51.360;7.340;2023-05-10T12:10:07;14.32;;;5.13;;
8036;SDS011;4061;51.360;7.340;2023-05-10T12:12:36;12.82;;;5.72;;
8036;SDS011;4061;51.360;7.340;2023-05-10T12:15:04;12.52;;;5.47;;
8036;SDS011;4061;51.360;7.340;2023-05-10T12:17:33;8.63;;;5.25;;
8036;SDS011;4061;51.360;7.340;2023-05-10T12:20:12;9.38;;;5.32;;
8036;SDS011;4061;51.360;7.340;2023-05-10T12:22:39;8.77;;;4.57;;
8036;SDS011;4061;51.360;7.340;2023-05-10T12:25:08;9.13;;;4.18;;
8036;SDS011;4061;51.360;7.340;2023-05-10T12:27:35;9.50;;;4.63;;
8036;SDS011;4061;51.360;7.340;2023-05-10T12:30:02;10.88;;;4.82;;
8036;SDS011;4061;51.360;7.340;2023-05-10T12:32:41;14.05;;;5.32;;
8036;SDS011;4061;51.360;7.340;2023-05-10T12:35:08;7.65;;;4.25;;
8036;SDS011;4061;51.360;7.340;2023-05-10T12:37:35;7.68;;;4.30;;
8036;SDS011;4061;51.360;7.340;2023-05-10T12:40:05;9.27;;;4.13;;
8036;SDS011;4061;51.360;7.340;2023-05-10T12:42:34;8.20;;;4.18;;
8036;SDS011;4061;51.360;7.340;2023-05-10T12:45:02;9.10;;;4.00;;
8036;SDS011;4061;51.360;7.340;2023-05-10T12:47:29;6.97;;;3.58;;
8036;SDS011;4061;51.360;7.340;2023-05-10T12:50:00;6.80;;;3.78;;
8036;SDS011;4061;51.360;7.340;2023-05-10T12:52:27;7.95;;;3.80;;
8036;SDS011;4061;51.360;7.340;2023-05-10T12:54:55;8.48;;;4.43;;
8036;SDS011;4061;51.360;7.340;2023-05-10T12:57:22;5.13;;;3.33;;
8036;SDS011;4061;51.360;7.340;2023-05-10T12:59:49;6.13;;;4.20;;
8036;SDS011;4061;51.360;7.340;2023-05-10T13:02:16;5.10;;;3.65;;
8036;SDS011;4061;51.360;7.340;2023-05-10T13:04:44;13.00;;;3.90;;
8036;SDS011;4061;51.360;7.340;2023-05-10T13:07:13;8.40;;;3.58;;
8036;SDS011;4061;51.360;7.340;2023-05-10T13:09:40;8.52;;;4.43;;
8036;SDS011;4061;51.360;7.340;2023-05-10T13:12:08;9.95;;;4.97;;
8036;SDS011;4061;51.360;7.340;2023-05-10T13:14:35;9.80;;;5.60;;
8036;SDS011;4061;51.360;7.340;2023-05-10T13:17:02;15.32;;;5.70;;
8036;SDS011;4061;51.360;7.340;2023-05-10T13:19:30;13.68;;;5.50;;
8036;SDS011;4061;51.360;7.340;2023-05-10T13:21:57;8.32;;;5.22;;
8036;SDS011;4061;51.360;7.340;2023-05-10T13:24:25;8.38;;;4.93;;
8036;SDS011;4061;51.360;7.340;2023-05-10T13:26:52;9.38;;;4.90;;
8036;SDS011;4061;51.360;7.340;2023-05-10T13:29:20;7.40;;;4.70;;
8036;SDS011;4061;51.360;7.340;2023-05-10T13:31:47;8.27;;;5.13;;
8036;SDS011;4061;51.360;7.340;2023-05-10T13:34:14;9.10;;;5.05;;
8036;SDS011;4061;51.360;7.340;2023-05-10T13:36:45;9.82;;;5.60;;
8036;SDS011;4061;51.360;7.340;2023-05-10T13:39:12;7.95;;;5.28;;
8036;SDS011;4061;51.360;7.340;2023-05-10T13:41:41;11.68;;;5.13;;
8036;SDS011;4061;51.360;7.340;2023-05-10T13:44:08;7.65;;;4.90;;
8036;SDS011;4061;51.360;7.340;2023-05-10T13:46:35;9.00;;;5.25;;
8036;SDS011;4061;51.360;7.340;2023-05-10T13:49:03;8.13;;;5.20;;
8036;SDS011;4061;51.360;7.340;2023-05-10T13:51:30;11.63;;;5.78;;
8036;SDS011;4061;51.360;7.340;2023-05-10T13:53:58;9.27;;;4.68;;
8036;SDS011;4061;51.360;7.340;2023-05-10T13:56:25;6.50;;;4.47;;
8036;SDS011;4061;51.360;7.340;2023-05-10T13:58:53;6.22;;;4.40;;
8036;SDS011;4061;51.360;7.340;2023-05-10T14:01:21;6.85;;;4.05;;
8036;SDS011;4061;51.360;7.340;2023-05-10T14:03:48;13.70;;;4.65;;
8036;SDS011;4061;51.360;7.340;2023-05-10T14:06:15;5.75;;;3.92;;
8036;SDS011;4061;51.360;7.340;2023-05-10T14:08:42;5.07;;;3.83;;
8036;SDS011;4061;51.360;7.340;2023-05-10T14:11:09;7.35;;;5.03;;
8036;SDS011;4061;51.360;7.340;2023-05-10T14:13:36;6.13;;;4.30;;
8036;SDS011;4061;51.360;7.340;2023-05-10T14:16:05;8.32;;;4.80;;
8036;SDS011;4061;51.360;7.340;2023-05-10T14:18:33;6.07;;;3.50;;
8036;SDS011;4061;51.360;7.340;2023-05-10T14:21:01;4.25;;;3.35;;
8036;SDS011;4061;51.360;7.340;2023-05-10T14:23:28;8.75;;;3.75;;
8036;SDS011;4061;51.360;7.340;2023-05-10T14:25:55;5.90;;;3.70;;
8036;SDS011;4061;51.360;7.340;2023-05-10T14:28:23;8.32;;;4.43;;
8036;SDS011;4061;51.360;7.340;2023-05-10T14:30:50;4.57;;;3.50;;
8036;SDS011;4061;51.360;7.340;2023-05-10T14:33:18;7.97;;;3.38;;
8036;SDS011;4061;51.360;7.340;2023-05-10T14:35:45;4.70;;;3.40;;
8036;SDS011;4061;51.360;7.340;2023-05-10T14:38:13;10.30;;;3.50;;
8036;SDS011;4061;51.360;7.340;2023-05-10T14:40:40;4.22;;;3.65;;
8036;SDS011;4061;51.360;7.340;2023-05-10T14:43:07;5.60;;;3.38;;
8036;SDS011;4061;51.360;7.340;2023-05-10T14:45:35;5.43;;;3.05;;
8036;SDS011;4061;51.360;7.340;2023-05-10T14:48:02;4.25;;;3.03;;
8036;SDS011;4061;51.360;7.340;2023-05-10T14:50:31;4.13;;;2.90;;
8036;SDS011;4061;51.360;7.340;2023-05-10T14:52:58;7.15;;;2.80;;
8036;SDS011;4061;51.360;7.340;2023-05-10T14:55:25;3.67;;;2.70;;
8036;SDS011;4061;51.360;7.340;2023-05-10T14:57:52;4.60;;;2.83;;
8036;SDS011;4061;51.360;7.340;2023-05-10T15:00:20;5.75;;;3.00;;
8036;SDS011;4061;51.360;7.340;2023-05-10T15:02:47;6.40;;;3.45;;
8036;SDS011;4061;51.360;7.340;2023-05-10T15:05:14;4.60;;;3.47;;
8036;SDS011;4061;51.360;7.340;2023-05-10T15:07:43;6.50;;;3.90;;
8036;SDS011;4061;51.360;7.340;2023-05-10T15:10:11;9.02;;;4.43;;
8036;SDS011;4061;51.360;7.340;2023-05-10T15:12:39;8.65;;;4.63;;
8036;SDS011;4061;51.360;7.340;2023-05-10T15:15:06;6.22;;;4.22;;
8036;SDS011;4061;51.360;7.340;2023-05-10T15:17:33;8.60;;;4.70;;
8036;SDS011;4061;51.360;7.340;2023-05-10T15:20:01;7.97;;;4.82;;
8036;SDS011;4061;51.360;7.340;2023-05-10T15:22:29;13.45;;;5.18;;